sensor_id;sensor_type;location;lat;lon;timestamp;P1;durP1;ratioP1;P2;durP2;ratioP2
51594;SDS011;37677;53.254;6.594;2022-12-11T00:01:31;49.17;;;29.33;;
51594;SDS011;37677;53.254;6.594;2022-12-11T00:03:57;47.92;;;28.40;;
51594;SDS011;37677;53.254;6.594;2022-12-11T00:06:23;46.63;;;28.50;;
51594;SDS011;37677;53.254;6.594;2022-12-11T00:08:50;44.80;;;29.02;;
51594;SDS011;37677;53.254;6.594;2022-12-11T00:11:17;50.22;;;28.88;;
51594;SDS011;37677;53.254;6.594;2022-12-11T00:13:43;52.40;;;29.05;;
51594;SDS011;37677;53.254;6.594;2022-12-11T00:16:09;52.17;;;28.48;;
51594;SDS011;37677;53.254;6.594;2022-12-11T00:18:36;55.28;;;31.58;;
51594;SDS011;37677;53.254;6.594;2022-12-11T00:21:03;49.45;;;30.48;;
51594;SDS011;37677;53.254;6.594;2022-12-11T00:23:30;68.57;;;32.72;;
51594;SDS011;37677;53.254;6.594;2022-12-11T00:25:56;54.42;;;31.25;;
51594;SDS011;37677;53.254;6.594;2022-12-11T00:28:22;51.45;;;32.25;;
51594;SDS011;37677;53.254;6.594;2022-12-11T00:30:49;53.38;;;31.83;;
51594;SDS011;37677;53.254;6.594;2022-12-11T00:33:15;59.38;;;32.15;;
51594;SDS011;37677;53.254;6.594;2022-12-11T00:35:43;57.08;;;30.77;;
51594;SDS011;37677;53.254;6.594;2022-12-11T00:38:16;60.60;;;31.33;;
51594;SDS011;37677;53.254;6.594;2022-12-11T00:40:42;58.05;;;30.63;;
51594;SDS011;37677;53.254;6.594;2022-12-11T00:43:09;54.80;;;30.63;;
51594;SDS011;37677;53.254;6.594;2022-12-11T00:45:35;56.92;;;31.25;;
51594;SDS011;37677;53.254;6.594;2022-12-11T00:48:02;53.38;;;29.83;;
51594;SDS011;37677;53.254;6.594;2022-12-11T00:50:28;48.50;;;27.10;;
51594;SDS011;37677;53.254;6.594;2022-12-11T00:52:54;51.67;;;28.73;;
51594;SDS011;37677;53.254;6.594;2022-12-11T00:55:20;45.13;;;28.00;;
51594;SDS011;37677;53.254;6.594;2022-12-11T00:57:46;52.60;;;27.70;;
51594;SDS011;37677;53.254;6.594;2022-12-11T01:00:12;52.33;;;29.05;;
51594;SDS011;37677;53.254;6.594;2022-12-11T01:02:38;51.35;;;27.13;;
51594;SDS011;37677;53.254;6.594;2022-12-11T01:05:04;51.22;;;27.13;;
51594;SDS011;37677;53.254;6.594;2022-12-11T01:07:30;46.67;;;27.33;;
51594;SDS011;37677;53.254;6.594;2022-12-11T01:09:57;50.40;;;26.58;;
51594;SDS011;37677;53.254;6.594;2022-12-11T01:12:41;46.20;;;26.65;;
51594;SDS011;37677;53.254;6.594;2022-12-11T01:15:07;49.67;;;27.67;;
51594;SDS011;37677;53.254;6.594;2022-12-11T01:17:33;41.45;;;25.50;;
51594;SDS011;37677;53.254;6.594;2022-12-11T01:19:59;49.20;;;27.10;;
51594;SDS011;37677;53.254;6.594;2022-12-11T01:22:26;47.17;;;25.73;;
51594;SDS011;37677;53.254;6.594;2022-12-11T01:24:52;42.67;;;25.88;;
51594;SDS011;37677;53.254;6.594;2022-12-11T01:27:18;48.22;;;27.92;;
51594;SDS011;37677;53.254;6.594;2022-12-11T01:29:44;45.85;;;26.00;;
51594;SDS011;37677;53.254;6.594;2022-12-11T01:32:10;46.15;;;26.95;;
51594;SDS011;37677;53.254;6.594;2022-12-11T01:34:37;41.72;;;25.75;;
51594;SDS011;37677;53.254;6.594;2022-12-11T01:37:03;44.17;;;25.90;;
51594;SDS011;37677;53.254;6.594;2022-12-11T01:39:29;45.92;;;27.15;;
51594;SDS011;37677;53.254;6.594;2022-12-11T01:41:56;44.28;;;25.83;;
51594;SDS011;37677;53.254;6.594;2022-12-11T01:46:48;46.22;;;27.10;;
51594;SDS011;37677;53.254;6.594;2022-12-11T01:49:14;48.30;;;26.95;;
51594;SDS011;37677;53.254;6.594;2022-12-11T01:51:46;48.17;;;28.67;;
51594;SDS011;37677;53.254;6.594;2022-12-11T01:54:14;47.25;;;28.40;;
51594;SDS011;37677;53.254;6.594;2022-12-11T01:56:41;47.78;;;26.63;;
51594;SDS011;37677;53.254;6.594;2022-12-11T01:59:08;47.10;;;27.48;;
51594;SDS011;37677;53.254;6.594;2022-12-11T02:01:42;43.83;;;26.55;;
51594;SDS011;37677;53.254;6.594;2022-12-11T02:04:09;48.00;;;26.67;;
51594;SDS011;37677;53.254;6.594;2022-12-11T02:06:37;53.80;;;29.58;;
51594;SDS011;37677;53.254;6.594;2022-12-11T02:09:04;54.20;;;29.17;;
51594;SDS011;37677;53.254;6.594;2022-12-11T02:11:46;53.17;;;29.70;;
51594;SDS011;37677;53.254;6.594;2022-12-11T02:17:11;58.50;;;32.72;;
51594;SDS011;37677;53.254;6.594;2022-12-11T02:22:21;68.90;;;33.22;;
51594;SDS011;37677;53.254;6.594;2022-12-11T02:24:56;66.57;;;32.45;;
51594;SDS011;37677;53.254;6.594;2022-12-11T02:27:27;70.47;;;33.30;;
51594;SDS011;37677;53.254;6.594;2022-12-11T02:32:42;66.95;;;33.40;;
51594;SDS011;37677;53.254;6.594;2022-12-11T02:37:40;66.47;;;33.15;;
51594;SDS011;37677;53.254;6.594;2022-12-11T02:40:07;75.30;;;34.58;;
51594;SDS011;37677;53.254;6.594;2022-12-11T02:42:34;69.60;;;34.78;;
51594;SDS011;37677;53.254;6.594;2022-12-11T02:45:02;67.82;;;33.53;;
51594;SDS011;37677;53.254;6.594;2022-12-11T02:47:29;70.35;;;34.60;;
51594;SDS011;37677;53.254;6.594;2022-12-11T02:49:57;67.25;;;33.45;;
51594;SDS011;37677;53.254;6.594;2022-12-11T02:52:23;69.80;;;35.10;;
51594;SDS011;37677;53.254;6.594;2022-12-11T02:54:50;70.38;;;34.10;;
51594;SDS011;37677;53.254;6.594;2022-12-11T02:59:49;68.20;;;34.17;;
51594;SDS011;37677;53.254;6.594;2022-12-11T03:02:15;73.75;;;35.83;;
51594;SDS011;37677;53.254;6.594;2022-12-11T03:04:42;70.53;;;34.65;;
51594;SDS011;37677;53.254;6.594;2022-12-11T03:07:11;73.18;;;35.03;;
51594;SDS011;37677;53.254;6.594;2022-12-11T03:09:38;68.65;;;34.60;;
51594;SDS011;37677;53.254;6.594;2022-12-11T03:12:05;67.82;;;33.78;;
51594;SDS011;37677;53.254;6.594;2022-12-11T03:14:32;67.53;;;33.95;;
51594;SDS011;37677;53.254;6.594;2022-12-11T03:17:02;65.80;;;34.15;;
51594;SDS011;37677;53.254;6.594;2022-12-11T03:19:40;68.18;;;31.90;;
51594;SDS011;37677;53.254;6.594;2022-12-11T03:22:19;67.15;;;32.78;;
51594;SDS011;37677;53.254;6.594;2022-12-11T03:24:50;69.75;;;33.28;;
51594;SDS011;37677;53.254;6.594;2022-12-11T03:27:20;67.55;;;33.08;;
51594;SDS011;37677;53.254;6.594;2022-12-11T03:30:10;55.45;;;29.25;;
51594;SDS011;37677;53.254;6.594;2022-12-11T03:32:35;65.15;;;31.65;;
51594;SDS011;37677;53.254;6.594;2022-12-11T03:37:47;61.13;;;30.92;;
51594;SDS011;37677;53.254;6.594;2022-12-11T03:40:15;64.82;;;32.80;;
51594;SDS011;37677;53.254;6.594;2022-12-11T03:42:42;64.57;;;32.30;;
51594;SDS011;37677;53.254;6.594;2022-12-11T03:45:09;63.95;;;32.15;;
51594;SDS011;37677;53.254;6.594;2022-12-11T03:47:36;62.00;;;31.13;;
51594;SDS011;37677;53.254;6.594;2022-12-11T03:50:04;65.90;;;32.70;;
51594;SDS011;37677;53.254;6.594;2022-12-11T03:52:31;62.90;;;31.42;;
51594;SDS011;37677;53.254;6.594;2022-12-11T03:54:59;60.78;;;31.10;;
51594;SDS011;37677;53.254;6.594;2022-12-11T03:57:27;63.85;;;30.75;;
51594;SDS011;37677;53.254;6.594;2022-12-11T03:59:54;66.43;;;32.25;;
51594;SDS011;37677;53.254;6.594;2022-12-11T04:02:20;69.07;;;31.35;;
51594;SDS011;37677;53.254;6.594;2022-12-11T04:04:46;62.63;;;30.30;;
51594;SDS011;37677;53.254;6.594;2022-12-11T04:07:12;66.43;;;32.22;;
51594;SDS011;37677;53.254;6.594;2022-12-11T04:09:38;62.45;;;31.52;;
51594;SDS011;37677;53.254;6.594;2022-12-11T04:12:04;65.88;;;32.17;;
51594;SDS011;37677;53.254;6.594;2022-12-11T04:14:30;68.93;;;32.30;;
51594;SDS011;37677;53.254;6.594;2022-12-11T04:17:15;75.68;;;33.20;;
51594;SDS011;37677;53.254;6.594;2022-12-11T04:20:02;64.97;;;31.42;;
51594;SDS011;37677;53.254;6.594;2022-12-11T04:22:46;59.65;;;30.45;;
51594;SDS011;37677;53.254;6.594;2022-12-11T04:25:31;60.63;;;30.52;;
51594;SDS011;37677;53.254;6.594;2022-12-11T04:28:00;76.05;;;33.28;;
51594;SDS011;37677;53.254;6.594;2022-12-11T04:30:26;65.25;;;32.35;;
51594;SDS011;37677;53.254;6.594;2022-12-11T04:32:52;56.92;;;31.40;;
51594;SDS011;37677;53.254;6.594;2022-12-11T04:35:19;63.42;;;31.13;;
51594;SDS011;37677;53.254;6.594;2022-12-11T04:37:45;61.80;;;30.95;;
51594;SDS011;37677;53.254;6.594;2022-12-11T04:40:12;56.78;;;30.13;;
51594;SDS011;37677;53.254;6.594;2022-12-11T04:42:39;62.03;;;30.88;;
51594;SDS011;37677;53.254;6.594;2022-12-11T04:45:05;62.60;;;30.23;;
51594;SDS011;37677;53.254;6.594;2022-12-11T04:47:33;56.45;;;29.45;;
51594;SDS011;37677;53.254;6.594;2022-12-11T04:49:59;58.53;;;31.23;;
51594;SDS011;37677;53.254;6.594;2022-12-11T04:52:25;55.88;;;29.30;;
51594;SDS011;37677;53.254;6.594;2022-12-11T04:54:51;52.17;;;28.63;;
51594;SDS011;37677;53.254;6.594;2022-12-11T04:57:17;54.08;;;30.33;;
51594;SDS011;37677;53.254;6.594;2022-12-11T04:59:45;57.55;;;30.35;;
51594;SDS011;37677;53.254;6.594;2022-12-11T05:02:12;58.13;;;31.33;;
51594;SDS011;37677;53.254;6.594;2022-12-11T05:04:38;59.60;;;30.98;;
51594;SDS011;37677;53.254;6.594;2022-12-11T05:07:04;57.85;;;30.23;;
51594;SDS011;37677;53.254;6.594;2022-12-11T05:09:30;60.97;;;31.23;;
51594;SDS011;37677;53.254;6.594;2022-12-11T05:11:56;61.83;;;32.10;;
51594;SDS011;37677;53.254;6.594;2022-12-11T05:14:22;59.75;;;31.30;;
51594;SDS011;37677;53.254;6.594;2022-12-11T05:16:48;62.30;;;29.88;;
51594;SDS011;37677;53.254;6.594;2022-12-11T05:19:14;52.83;;;28.05;;
51594;SDS011;37677;53.254;6.594;2022-12-11T05:21:40;55.17;;;28.42;;
51594;SDS011;37677;53.254;6.594;2022-12-11T05:24:06;52.67;;;28.90;;
51594;SDS011;37677;53.254;6.594;2022-12-11T05:26:32;60.60;;;30.70;;
51594;SDS011;37677;53.254;6.594;2022-12-11T05:28:58;62.50;;;31.02;;
51594;SDS011;37677;53.254;6.594;2022-12-11T05:31:25;55.45;;;29.25;;
51594;SDS011;37677;53.254;6.594;2022-12-11T05:33:52;53.65;;;28.58;;
51594;SDS011;37677;53.254;6.594;2022-12-11T05:38:44;56.30;;;28.90;;
51594;SDS011;37677;53.254;6.594;2022-12-11T05:41:11;59.58;;;30.85;;
51594;SDS011;37677;53.254;6.594;2022-12-11T05:43:38;62.08;;;31.73;;
51594;SDS011;37677;53.254;6.594;2022-12-11T05:46:07;68.80;;;32.70;;
51594;SDS011;37677;53.254;6.594;2022-12-11T05:48:34;62.25;;;30.70;;
51594;SDS011;37677;53.254;6.594;2022-12-11T05:51:00;61.03;;;31.83;;
51594;SDS011;37677;53.254;6.594;2022-12-11T05:53:27;58.78;;;29.98;;
51594;SDS011;37677;53.254;6.594;2022-12-11T05:55:53;61.35;;;30.88;;
51594;SDS011;37677;53.254;6.594;2022-12-11T05:58:19;56.78;;;29.75;;
51594;SDS011;37677;53.254;6.594;2022-12-11T06:00:46;60.30;;;30.45;;
51594;SDS011;37677;53.254;6.594;2022-12-11T06:03:12;52.05;;;29.23;;
51594;SDS011;37677;53.254;6.594;2022-12-11T06:05:38;59.58;;;30.58;;
51594;SDS011;37677;53.254;6.594;2022-12-11T06:08:05;59.10;;;30.30;;
51594;SDS011;37677;53.254;6.594;2022-12-11T06:10:31;50.63;;;29.52;;
51594;SDS011;37677;53.254;6.594;2022-12-11T06:12:57;59.33;;;30.02;;
51594;SDS011;37677;53.254;6.594;2022-12-11T06:15:23;59.60;;;29.48;;
51594;SDS011;37677;53.254;6.594;2022-12-11T06:17:49;58.10;;;30.70;;
51594;SDS011;37677;53.254;6.594;2022-12-11T06:20:15;57.85;;;30.83;;
51594;SDS011;37677;53.254;6.594;2022-12-11T06:22:41;56.58;;;30.80;;
51594;SDS011;37677;53.254;6.594;2022-12-11T06:25:07;60.25;;;30.38;;
51594;SDS011;37677;53.254;6.594;2022-12-11T06:27:34;56.38;;;28.38;;
51594;SDS011;37677;53.254;6.594;2022-12-11T06:30:00;52.83;;;28.90;;
51594;SDS011;37677;53.254;6.594;2022-12-11T06:32:26;52.17;;;28.50;;
51594;SDS011;37677;53.254;6.594;2022-12-11T06:34:52;57.72;;;30.52;;
51594;SDS011;37677;53.254;6.594;2022-12-11T06:37:18;53.83;;;26.90;;
51594;SDS011;37677;53.254;6.594;2022-12-11T06:39:44;50.50;;;28.27;;
51594;SDS011;37677;53.254;6.594;2022-12-11T06:42:10;52.70;;;29.58;;
51594;SDS011;37677;53.254;6.594;2022-12-11T06:44:37;57.45;;;31.48;;
51594;SDS011;37677;53.254;6.594;2022-12-11T06:47:03;55.83;;;29.95;;
51594;SDS011;37677;53.254;6.594;2022-12-11T06:49:29;48.67;;;27.92;;
51594;SDS011;37677;53.254;6.594;2022-12-11T06:51:55;52.80;;;29.50;;
51594;SDS011;37677;53.254;6.594;2022-12-11T06:54:25;59.47;;;31.17;;
51594;SDS011;37677;53.254;6.594;2022-12-11T06:56:52;57.97;;;30.58;;
51594;SDS011;37677;53.254;6.594;2022-12-11T06:59:18;55.58;;;29.33;;
51594;SDS011;37677;53.254;6.594;2022-12-11T07:01:44;53.88;;;29.73;;
51594;SDS011;37677;53.254;6.594;2022-12-11T07:04:10;54.92;;;29.35;;
51594;SDS011;37677;53.254;6.594;2022-12-11T07:06:36;51.88;;;28.88;;
51594;SDS011;37677;53.254;6.594;2022-12-11T07:09:05;51.40;;;28.42;;
51594;SDS011;37677;53.254;6.594;2022-12-11T07:11:32;51.10;;;29.63;;
51594;SDS011;37677;53.254;6.594;2022-12-11T07:13:58;54.22;;;30.23;;
51594;SDS011;37677;53.254;6.594;2022-12-11T07:16:27;54.42;;;29.27;;
51594;SDS011;37677;53.254;6.594;2022-12-11T07:18:53;60.42;;;30.63;;
51594;SDS011;37677;53.254;6.594;2022-12-11T07:21:19;54.72;;;29.90;;
51594;SDS011;37677;53.254;6.594;2022-12-11T07:23:45;56.75;;;29.70;;
51594;SDS011;37677;53.254;6.594;2022-12-11T07:26:14;58.15;;;30.73;;
51594;SDS011;37677;53.254;6.594;2022-12-11T07:28:41;54.83;;;28.88;;
51594;SDS011;37677;53.254;6.594;2022-12-11T07:31:08;55.78;;;28.55;;
51594;SDS011;37677;53.254;6.594;2022-12-11T07:33:34;54.30;;;29.75;;
51594;SDS011;37677;53.254;6.594;2022-12-11T07:36:01;48.40;;;27.42;;
51594;SDS011;37677;53.254;6.594;2022-12-11T07:38:28;52.28;;;29.35;;
51594;SDS011;37677;53.254;6.594;2022-12-11T07:40:54;52.85;;;28.92;;
51594;SDS011;37677;53.254;6.594;2022-12-11T07:43:20;53.05;;;27.90;;
51594;SDS011;37677;53.254;6.594;2022-12-11T07:45:46;60.38;;;31.27;;
51594;SDS011;37677;53.254;6.594;2022-12-11T07:48:12;57.20;;;29.00;;
51594;SDS011;37677;53.254;6.594;2022-12-11T07:50:38;55.47;;;28.38;;
51594;SDS011;37677;53.254;6.594;2022-12-11T07:53:04;55.00;;;29.27;;
51594;SDS011;37677;53.254;6.594;2022-12-11T07:55:31;55.20;;;28.65;;
51594;SDS011;37677;53.254;6.594;2022-12-11T07:58:00;54.47;;;27.83;;
51594;SDS011;37677;53.254;6.594;2022-12-11T08:00:26;53.13;;;28.77;;
51594;SDS011;37677;53.254;6.594;2022-12-11T08:02:53;52.45;;;28.33;;
51594;SDS011;37677;53.254;6.594;2022-12-11T08:05:19;54.92;;;28.17;;
51594;SDS011;37677;53.254;6.594;2022-12-11T08:07:45;54.95;;;27.70;;
51594;SDS011;37677;53.254;6.594;2022-12-11T08:10:11;57.20;;;29.75;;
51594;SDS011;37677;53.254;6.594;2022-12-11T08:12:37;54.53;;;27.95;;
51594;SDS011;37677;53.254;6.594;2022-12-11T08:15:03;53.35;;;28.92;;
51594;SDS011;37677;53.254;6.594;2022-12-11T08:17:29;52.30;;;28.73;;
51594;SDS011;37677;53.254;6.594;2022-12-11T08:19:55;58.17;;;28.67;;
51594;SDS011;37677;53.254;6.594;2022-12-11T08:22:21;52.95;;;28.40;;
51594;SDS011;37677;53.254;6.594;2022-12-11T08:24:47;54.78;;;28.85;;
51594;SDS011;37677;53.254;6.594;2022-12-11T08:27:13;58.95;;;28.85;;
51594;SDS011;37677;53.254;6.594;2022-12-11T08:29:39;60.53;;;30.23;;
51594;SDS011;37677;53.254;6.594;2022-12-11T08:32:06;55.65;;;28.90;;
51594;SDS011;37677;53.254;6.594;2022-12-11T08:34:33;58.95;;;30.60;;
51594;SDS011;37677;53.254;6.594;2022-12-11T08:36:59;56.53;;;28.50;;
51594;SDS011;37677;53.254;6.594;2022-12-11T08:39:25;55.85;;;30.08;;
51594;SDS011;37677;53.254;6.594;2022-12-11T08:41:51;58.08;;;29.45;;
51594;SDS011;37677;53.254;6.594;2022-12-11T08:44:17;54.38;;;27.75;;
51594;SDS011;37677;53.254;6.594;2022-12-11T08:46:44;59.72;;;30.08;;
51594;SDS011;37677;53.254;6.594;2022-12-11T08:49:10;56.50;;;28.52;;
51594;SDS011;37677;53.254;6.594;2022-12-11T08:51:36;60.15;;;28.35;;
51594;SDS011;37677;53.254;6.594;2022-12-11T08:54:03;55.70;;;29.23;;
51594;SDS011;37677;53.254;6.594;2022-12-11T08:56:29;62.40;;;29.20;;
51594;SDS011;37677;53.254;6.594;2022-12-11T08:58:58;56.00;;;28.13;;
51594;SDS011;37677;53.254;6.594;2022-12-11T09:01:25;57.42;;;28.50;;
51594;SDS011;37677;53.254;6.594;2022-12-11T09:03:52;64.25;;;30.17;;
51594;SDS011;37677;53.254;6.594;2022-12-11T09:06:20;64.28;;;30.95;;
51594;SDS011;37677;53.254;6.594;2022-12-11T09:08:47;60.25;;;29.50;;
51594;SDS011;37677;53.254;6.594;2022-12-11T09:11:15;64.10;;;32.08;;
51594;SDS011;37677;53.254;6.594;2022-12-11T09:13:41;65.57;;;31.33;;
51594;SDS011;37677;53.254;6.594;2022-12-11T09:16:12;66.15;;;31.45;;
51594;SDS011;37677;53.254;6.594;2022-12-11T09:18:39;61.83;;;29.95;;
51594;SDS011;37677;53.254;6.594;2022-12-11T09:21:06;64.70;;;31.08;;
51594;SDS011;37677;53.254;6.594;2022-12-11T09:23:32;67.90;;;32.05;;
51594;SDS011;37677;53.254;6.594;2022-12-11T09:25:59;69.10;;;32.28;;
51594;SDS011;37677;53.254;6.594;2022-12-11T09:28:25;69.88;;;33.67;;
51594;SDS011;37677;53.254;6.594;2022-12-11T09:30:51;72.35;;;33.28;;
51594;SDS011;37677;53.254;6.594;2022-12-11T09:33:17;75.43;;;32.97;;
51594;SDS011;37677;53.254;6.594;2022-12-11T09:35:43;67.53;;;33.15;;
51594;SDS011;37677;53.254;6.594;2022-12-11T09:38:09;65.90;;;31.63;;
51594;SDS011;37677;53.254;6.594;2022-12-11T09:40:41;66.05;;;32.83;;
51594;SDS011;37677;53.254;6.594;2022-12-11T09:43:17;63.22;;;32.05;;
51594;SDS011;37677;53.254;6.594;2022-12-11T09:45:47;59.72;;;30.38;;
51594;SDS011;37677;53.254;6.594;2022-12-11T09:48:14;65.50;;;32.13;;
51594;SDS011;37677;53.254;6.594;2022-12-11T09:50:42;63.33;;;31.42;;
51594;SDS011;37677;53.254;6.594;2022-12-11T09:53:13;65.35;;;32.75;;
51594;SDS011;37677;53.254;6.594;2022-12-11T10:01:08;63.13;;;31.27;;
51594;SDS011;37677;53.254;6.594;2022-12-11T10:16:38;64.35;;;31.83;;
51594;SDS011;37677;53.254;6.594;2022-12-11T10:19:09;60.88;;;31.27;;
51594;SDS011;37677;53.254;6.594;2022-12-11T10:21:39;63.92;;;33.00;;
51594;SDS011;37677;53.254;6.594;2022-12-11T10:24:10;59.97;;;32.70;;
51594;SDS011;37677;53.254;6.594;2022-12-11T10:26:37;61.58;;;32.80;;
51594;SDS011;37677;53.254;6.594;2022-12-11T10:29:05;60.28;;;30.55;;
51594;SDS011;37677;53.254;6.594;2022-12-11T10:34:10;58.42;;;31.42;;
51594;SDS011;37677;53.254;6.594;2022-12-11T10:37:31;62.55;;;31.45;;
51594;SDS011;37677;53.254;6.594;2022-12-11T10:39:57;61.42;;;33.25;;
51594;SDS011;37677;53.254;6.594;2022-12-11T10:42:23;66.00;;;34.13;;
51594;SDS011;37677;53.254;6.594;2022-12-11T10:44:55;63.20;;;32.45;;
51594;SDS011;37677;53.254;6.594;2022-12-11T10:47:22;57.67;;;33.08;;
51594;SDS011;37677;53.254;6.594;2022-12-11T10:50:06;63.50;;;32.85;;
51594;SDS011;37677;53.254;6.594;2022-12-11T10:52:36;60.63;;;32.67;;
51594;SDS011;37677;53.254;6.594;2022-12-11T10:55:05;57.08;;;31.52;;
51594;SDS011;37677;53.254;6.594;2022-12-11T10:57:35;59.03;;;31.15;;
51594;SDS011;37677;53.254;6.594;2022-12-11T11:00:03;64.25;;;32.78;;
51594;SDS011;37677;53.254;6.594;2022-12-11T11:02:31;61.40;;;32.25;;
51594;SDS011;37677;53.254;6.594;2022-12-11T11:04:58;59.72;;;34.10;;
51594;SDS011;37677;53.254;6.594;2022-12-11T11:07:26;64.55;;;33.50;;
51594;SDS011;37677;53.254;6.594;2022-12-11T11:10:13;64.55;;;34.25;;
51594;SDS011;37677;53.254;6.594;2022-12-11T11:12:40;66.82;;;34.15;;
51594;SDS011;37677;53.254;6.594;2022-12-11T11:15:10;61.17;;;33.55;;
51594;SDS011;37677;53.254;6.594;2022-12-11T11:17:50;65.65;;;33.75;;
51594;SDS011;37677;53.254;6.594;2022-12-11T11:20:18;59.65;;;32.45;;
51594;SDS011;37677;53.254;6.594;2022-12-11T11:22:46;64.03;;;33.63;;
51594;SDS011;37677;53.254;6.594;2022-12-11T11:25:19;59.63;;;34.60;;
51594;SDS011;37677;53.254;6.594;2022-12-11T11:30:33;51.72;;;25.83;;
51594;SDS011;37677;53.254;6.594;2022-12-11T11:33:03;75.32;;;38.03;;
51594;SDS011;37677;53.254;6.594;2022-12-11T11:35:30;56.83;;;33.75;;
51594;SDS011;37677;53.254;6.594;2022-12-11T11:38:18;53.03;;;30.95;;
51594;SDS011;37677;53.254;6.594;2022-12-11T11:43:29;58.53;;;31.92;;
51594;SDS011;37677;53.254;6.594;2022-12-11T11:45:58;57.88;;;31.85;;
51594;SDS011;37677;53.254;6.594;2022-12-11T11:50:52;54.63;;;30.83;;
51594;SDS011;37677;53.254;6.594;2022-12-11T11:53:21;62.80;;;35.28;;
51594;SDS011;37677;53.254;6.594;2022-12-11T12:01:16;57.60;;;33.03;;
51594;SDS011;37677;53.254;6.594;2022-12-11T12:03:44;57.22;;;33.38;;
51594;SDS011;37677;53.254;6.594;2022-12-11T12:19:02;56.65;;;34.03;;
51594;SDS011;37677;53.254;6.594;2022-12-11T12:21:33;59.38;;;33.92;;
51594;SDS011;37677;53.254;6.594;2022-12-11T12:26:36;57.75;;;34.08;;
51594;SDS011;37677;53.254;6.594;2022-12-11T12:34:32;60.55;;;34.22;;
51594;SDS011;37677;53.254;6.594;2022-12-11T12:47:37;57.97;;;33.72;;
51594;SDS011;37677;53.254;6.594;2022-12-11T12:50:05;55.95;;;33.45;;
51594;SDS011;37677;53.254;6.594;2022-12-11T12:52:35;55.72;;;33.90;;
51594;SDS011;37677;53.254;6.594;2022-12-11T12:57:52;60.20;;;34.38;;
51594;SDS011;37677;53.254;6.594;2022-12-11T13:02:58;57.17;;;33.65;;
51594;SDS011;37677;53.254;6.594;2022-12-11T13:05:29;57.83;;;33.75;;
51594;SDS011;37677;53.254;6.594;2022-12-11T13:08:00;60.42;;;35.08;;
51594;SDS011;37677;53.254;6.594;2022-12-11T13:10:29;56.92;;;34.28;;
51594;SDS011;37677;53.254;6.594;2022-12-11T13:12:56;53.42;;;32.85;;
51594;SDS011;37677;53.254;6.594;2022-12-11T13:15:23;54.70;;;32.47;;
51594;SDS011;37677;53.254;6.594;2022-12-11T13:17:49;54.03;;;33.10;;
51594;SDS011;37677;53.254;6.594;2022-12-11T13:20:17;55.03;;;32.42;;
51594;SDS011;37677;53.254;6.594;2022-12-11T13:22:47;58.95;;;35.15;;
51594;SDS011;37677;53.254;6.594;2022-12-11T13:25:28;58.88;;;33.60;;
51594;SDS011;37677;53.254;6.594;2022-12-11T13:28:04;58.85;;;34.05;;
51594;SDS011;37677;53.254;6.594;2022-12-11T13:30:30;57.78;;;33.35;;
51594;SDS011;37677;53.254;6.594;2022-12-11T13:35:29;57.55;;;33.47;;
51594;SDS011;37677;53.254;6.594;2022-12-11T13:37:58;58.85;;;34.30;;
51594;SDS011;37677;53.254;6.594;2022-12-11T13:40:36;58.67;;;32.97;;
51594;SDS011;37677;53.254;6.594;2022-12-11T13:43:04;52.45;;;31.98;;
51594;SDS011;37677;53.254;6.594;2022-12-11T13:45:50;60.47;;;34.10;;
51594;SDS011;37677;53.254;6.594;2022-12-11T13:50:45;58.53;;;34.00;;
51594;SDS011;37677;53.254;6.594;2022-12-11T13:53:13;56.72;;;33.72;;
51594;SDS011;37677;53.254;6.594;2022-12-11T13:55:39;55.30;;;32.28;;
51594;SDS011;37677;53.254;6.594;2022-12-11T13:58:18;56.50;;;33.70;;
51594;SDS011;37677;53.254;6.594;2022-12-11T14:01:05;55.45;;;33.15;;
51594;SDS011;37677;53.254;6.594;2022-12-11T14:03:31;56.88;;;32.42;;
51594;SDS011;37677;53.254;6.594;2022-12-11T14:05:58;62.55;;;35.00;;
51594;SDS011;37677;53.254;6.594;2022-12-11T14:08:26;60.42;;;34.92;;
51594;SDS011;37677;53.254;6.594;2022-12-11T14:10:54;59.03;;;33.85;;
51594;SDS011;37677;53.254;6.594;2022-12-11T14:13:30;56.22;;;34.40;;
51594;SDS011;37677;53.254;6.594;2022-12-11T14:15:56;59.58;;;34.95;;
51594;SDS011;37677;53.254;6.594;2022-12-11T14:18:23;58.28;;;34.72;;
51594;SDS011;37677;53.254;6.594;2022-12-11T14:20:54;62.92;;;36.08;;
51594;SDS011;37677;53.254;6.594;2022-12-11T14:23:22;56.13;;;34.65;;
51594;SDS011;37677;53.254;6.594;2022-12-11T14:28:25;58.75;;;36.30;;
51594;SDS011;37677;53.254;6.594;2022-12-11T14:30:52;57.35;;;34.38;;
51594;SDS011;37677;53.254;6.594;2022-12-11T14:33:20;61.83;;;33.67;;
51594;SDS011;37677;53.254;6.594;2022-12-11T14:35:46;54.67;;;32.17;;
51594;SDS011;37677;53.254;6.594;2022-12-11T14:38:19;57.13;;;33.90;;
51594;SDS011;37677;53.254;6.594;2022-12-11T14:40:48;60.65;;;35.00;;
51594;SDS011;37677;53.254;6.594;2022-12-11T14:46:17;59.75;;;34.63;;
51594;SDS011;37677;53.254;6.594;2022-12-11T14:48:51;55.80;;;33.25;;
51594;SDS011;37677;53.254;6.594;2022-12-11T14:51:17;62.05;;;34.33;;
51594;SDS011;37677;53.254;6.594;2022-12-11T14:53:45;59.95;;;34.33;;
51594;SDS011;37677;53.254;6.594;2022-12-11T14:56:30;56.53;;;34.42;;
51594;SDS011;37677;53.254;6.594;2022-12-11T14:58:57;59.50;;;35.25;;
51594;SDS011;37677;53.254;6.594;2022-12-11T15:01:28;56.38;;;35.90;;
51594;SDS011;37677;53.254;6.594;2022-12-11T15:06:28;54.00;;;33.28;;
51594;SDS011;37677;53.254;6.594;2022-12-11T15:08:55;62.30;;;35.85;;
51594;SDS011;37677;53.254;6.594;2022-12-11T15:11:21;61.90;;;34.85;;
51594;SDS011;37677;53.254;6.594;2022-12-11T15:13:55;64.95;;;36.03;;
51594;SDS011;37677;53.254;6.594;2022-12-11T15:16:23;59.63;;;34.20;;
51594;SDS011;37677;53.254;6.594;2022-12-11T15:18:50;64.43;;;35.13;;
51594;SDS011;37677;53.254;6.594;2022-12-11T15:21:17;56.55;;;34.78;;
51594;SDS011;37677;53.254;6.594;2022-12-11T15:26:09;59.35;;;35.53;;
51594;SDS011;37677;53.254;6.594;2022-12-11T15:28:36;57.90;;;35.92;;
51594;SDS011;37677;53.254;6.594;2022-12-11T15:31:04;54.72;;;34.47;;
51594;SDS011;37677;53.254;6.594;2022-12-11T15:33:30;63.60;;;36.17;;
51594;SDS011;37677;53.254;6.594;2022-12-11T15:35:58;58.92;;;34.13;;
51594;SDS011;37677;53.254;6.594;2022-12-11T15:40:57;63.78;;;36.35;;
51594;SDS011;37677;53.254;6.594;2022-12-11T15:43:23;63.53;;;38.83;;
51594;SDS011;37677;53.254;6.594;2022-12-11T15:45:49;58.00;;;37.60;;
51594;SDS011;37677;53.254;6.594;2022-12-11T15:48:15;54.28;;;34.47;;
51594;SDS011;37677;53.254;6.594;2022-12-11T15:50:41;54.70;;;35.15;;
51594;SDS011;37677;53.254;6.594;2022-12-11T15:53:07;59.47;;;35.78;;
51594;SDS011;37677;53.254;6.594;2022-12-11T15:55:33;54.28;;;35.80;;
51594;SDS011;37677;53.254;6.594;2022-12-11T15:58:02;57.17;;;34.25;;
51594;SDS011;37677;53.254;6.594;2022-12-11T16:00:29;61.78;;;35.88;;
51594;SDS011;37677;53.254;6.594;2022-12-11T16:02:55;55.63;;;34.40;;
51594;SDS011;37677;53.254;6.594;2022-12-11T16:05:21;53.72;;;33.47;;
51594;SDS011;37677;53.254;6.594;2022-12-11T16:07:47;49.58;;;31.67;;
51594;SDS011;37677;53.254;6.594;2022-12-11T16:10:19;49.08;;;32.58;;
51594;SDS011;37677;53.254;6.594;2022-12-11T16:12:45;49.75;;;32.55;;
51594;SDS011;37677;53.254;6.594;2022-12-11T16:15:12;51.30;;;33.72;;
51594;SDS011;37677;53.254;6.594;2022-12-11T16:17:38;56.03;;;35.10;;